Time;durP1;ratioP1;P1;durP2;ratioP2;P2;SDS_P1;SDS_P2;PMS_P1;PMS_P2;Temp;Humidity;BMP_temperature;BMP_pressure;BME280_temperature;BME280_humidity;BME280_pressure;Samples;Min_cycle;Max_cycle;Signal;HPM_P1;HPM_P2
2021/07/11 00:01:52;;;;;;;;;23.00;20.50;;;;;-144.77;100.00;61770.03;4996993;28;8840;-82
2021/07/11 00:04:17;;;;;;;;;20.25;19.00;;;;;-144.77;100.00;61770.03;4979231;28;8817;-83
2021/07/11 00:06:43;;;;;;;;;34.75;29.75;;;;;-144.77;100.00;61770.03;4996808;28;8932;-82
2021/07/11 00:09:08;;;;;;;;;32.50;28.00;;;;;-144.77;100.00;61770.03;4996669;28;9688;-81
2021/07/11 00:11:34;;;;;;;;;24.50;22.75;;;;;-144.77;100.00;61770.03;4996951;28;8816;-81
2021/07/11 00:14:01;;;;;;;;;29.25;25.00;;;;;-144.77;100.00;61770.03;4980418;28;8836;-81
2021/07/11 00:16:32;;;;;;;;;32.50;25.50;;;;;-144.77;100.00;61770.03;4996156;28;8799;-82
2021/07/11 00:18:58;;;;;;;;;24.00;21.75;;;;;-144.77;100.00;61770.03;4996544;28;8755;-82
2021/07/11 00:21:24;;;;;;;;;24.25;19.50;;;;;-144.77;100.00;61770.03;4996662;28;8796;-81
2021/07/11 00:23:50;;;;;;;;;19.50;19.00;;;;;-144.77;100.00;61770.03;4996493;28;8868;-83
2021/07/11 00:26:15;;;;;;;;;11.25;10.00;;;;;-144.77;100.00;61770.03;4982221;28;8904;-82
2021/07/11 00:28:41;;;;;;;;;16.00;14.50;;;;;-144.77;100.00;61770.03;4996520;28;8853;-82
2021/07/11 00:31:06;;;;;;;;;10.00;10.00;;;;;-144.77;100.00;61770.03;4996588;28;8862;-82
2021/07/11 00:33:32;;;;;;;;;7.50;7.50;;;;;-144.77;100.00;61770.03;4983494;28;8888;-82
2021/07/11 00:35:57;;;;;;;;;9.75;9.75;;;;;-144.77;100.00;61770.03;4996431;28;8854;-82
2021/07/11 00:38:23;;;;;;;;;6.75;6.25;;;;;-144.77;100.00;61770.03;4996690;28;8849;-82
2021/07/11 00:40:49;;;;;;;;;7.25;5.75;;;;;-144.77;100.00;61770.03;4996458;28;8863;-82
2021/07/11 00:43:14;;;;;;;;;7.00;4.75;;;;;-144.77;100.00;61770.03;4996460;28;8838;-83
2021/07/11 00:45:40;;;;;;;;;8.75;6.75;;;;;-144.77;100.00;61770.03;4996112;28;8819;-82
2021/07/11 00:48:06;;;;;;;;;6.00;5.25;;;;;-144.77;100.00;61770.03;4996326;28;8859;-82
2021/07/11 00:50:41;;;;;;;;;6.50;6.50;;;;;-144.77;100.00;61770.03;4996219;28;8906;-84
2021/07/11 00:53:08;;;;;;;;;5.50;5.00;;;;;-144.77;100.00;61770.03;4994904;28;9766;-83
2021/07/11 00:55:35;;;;;;;;;6.00;6.00;;;;;-144.77;100.00;61770.03;4996061;28;8822;-84
2021/07/11 00:58:00;;;;;;;;;7.50;7.00;;;;;-144.77;100.00;61770.03;4996282;28;8815;-84
2021/07/11 01:00:26;;;;;;;;;9.25;7.00;;;;;-144.77;100.00;61770.03;4995207;28;8826;-84
2021/07/11 01:03:28;;;;;;;;;8.75;7.00;;;;;-144.77;100.00;61770.03;4994600;28;8830;-85
2021/07/11 01:05:55;;;;;;;;;7.00;5.75;;;;;-144.77;100.00;61770.03;4991295;28;8881;-84
2021/07/11 01:08:33;;;;;;;;;9.00;9.00;;;;;-144.77;100.00;61770.03;4996241;28;8794;-83
2021/07/11 01:11:03;;;;;;;;;10.25;9.25;;;;;-144.77;100.00;61770.03;4983832;28;8794;-84
2021/07/11 01:13:30;;;;;;;;;3.75;3.75;;;;;-144.77;100.00;61770.03;4995645;28;8836;-83
2021/07/11 01:16:02;;;;;;;;;0.00;0.00;;;;;-144.77;100.00;61770.03;4996073;28;8909;-83
2021/07/11 01:18:30;;;;;;;;;2.75;2.75;;;;;-144.77;100.00;61770.03;4977314;28;9177;-83
2021/07/11 01:21:01;;;;;;;;;4.25;4.00;;;;;-144.77;100.00;61770.03;4995934;28;8783;-83
2021/07/11 01:23:38;;;;;;;;;2.00;2.00;;;;;-144.77;100.00;61770.03;4992786;28;8815;-83
2021/07/11 01:26:09;;;;;;;;;4.00;4.00;;;;;-144.77;100.00;61770.03;4970496;28;8829;-83
2021/07/11 01:28:36;;;;;;;;;4.25;4.00;;;;;-144.77;100.00;61770.03;4986573;28;9792;-82
2021/07/11 01:31:03;;;;;;;;;7.00;5.75;;;;;-144.77;100.00;61770.03;4995788;28;8801;-82
2021/07/11 01:33:30;;;;;;;;;7.00;6.00;;;;;-144.77;100.00;61770.03;4995434;28;8949;-83
2021/07/11 01:35:59;;;;;;;;;7.00;7.00;;;;;-144.77;100.00;61770.03;4977911;28;8810;-82
2021/07/11 01:38:25;;;;;;;;;7.00;6.75;;;;;-144.77;100.00;61770.03;4995706;28;8908;-82
2021/07/11 01:40:52;;;;;;;;;7.00;7.00;;;;;-144.77;100.00;61770.03;4977784;28;8798;-83
2021/07/11 01:43:21;;;;;;;;;8.00;8.00;;;;;-144.77;100.00;61770.03;4995694;28;8806;-83
2021/07/11 01:45:49;;;;;;;;;7.50;7.00;;;;;-144.77;100.00;61770.03;4977776;28;8746;-83
2021/07/11 01:48:15;;;;;;;;;6.00;6.00;;;;;-144.77;100.00;61770.03;4995546;28;8817;-83
2021/07/11 01:50:41;;;;;;;;;6.00;6.00;;;;;-144.77;100.00;61770.03;4995298;28;8888;-83
2021/07/11 01:53:07;;;;;;;;;6.25;6.00;;;;;-144.77;100.00;61770.03;4977759;28;8830;-83
2021/07/11 01:55:33;;;;;;;;;5.25;5.25;;;;;-144.77;100.00;61770.03;4995420;28;9707;-82
2021/07/11 01:57:59;;;;;;;;;6.00;6.00;;;;;-144.77;100.00;61770.03;4995453;28;8852;-83
2021/07/11 02:00:25;;;;;;;;;7.25;7.00;;;;;-144.77;100.00;61770.03;4995229;28;8837;-83
2021/07/11 02:02:51;;;;;;;;;6.50;6.50;;;;;-144.77;100.00;61770.03;4995162;28;8837;-83
2021/07/11 02:05:17;;;;;;;;;5.75;5.75;;;;;-144.77;100.00;61770.03;4987713;28;8809;-83
2021/07/11 02:07:43;;;;;;;;;5.75;5.75;;;;;-144.77;100.00;61770.03;4995422;28;8868;-83
2021/07/11 02:10:11;;;;;;;;;7.25;7.25;;;;;-144.77;100.00;61770.03;4995090;28;8789;-83
2021/07/11 02:12:47;;;;;;;;;10.00;8.75;;;;;-144.77;100.00;61770.03;4997471;28;8829;-83
2021/07/11 02:15:13;;;;;;;;;8.25;8.25;;;;;-144.77;100.00;61770.03;4998326;28;8967;-84
2021/07/11 02:17:47;;;;;;;;;9.00;8.00;;;;;-144.77;100.00;61770.03;4977860;28;8879;-83
2021/07/11 02:20:12;;;;;;;;;7.50;7.00;;;;;-144.77;100.00;61770.03;4995766;28;8822;-83
2021/07/11 02:22:47;;;;;;;;;9.50;9.00;;;;;-144.77;100.00;61770.03;4998309;28;8939;-83
2021/07/11 02:25:19;;;;;;;;;8.00;8.00;;;;;-144.77;100.00;61770.03;4985847;28;8840;-83
2021/07/11 02:27:46;;;;;;;;;9.00;8.00;;;;;-144.77;100.00;61770.03;4998342;28;8782;-83
2021/07/11 02:30:17;;;;;;;;;7.00;7.00;;;;;-144.77;100.00;61770.03;4998244;28;9736;-83
2021/07/11 02:32:47;;;;;;;;;9.50;8.00;;;;;-144.77;100.00;61770.03;4998330;28;8957;-83
2021/07/11 02:35:14;;;;;;;;;5.25;5.25;;;;;-144.77;100.00;61770.03;4998432;28;8808;-82
2021/07/11 02:37:46;;;;;;;;;6.50;6.00;;;;;-144.77;100.00;61770.03;4998215;28;8817;-83
2021/07/11 02:40:12;;;;;;;;;6.00;6.00;;;;;-144.77;100.00;61770.03;4993647;28;9170;-82
2021/07/11 02:42:38;;;;;;;;;5.00;5.00;;;;;-144.77;100.00;61770.03;4993850;28;8801;-83
2021/07/11 02:45:04;;;;;;;;;9.25;6.75;;;;;-144.77;100.00;61770.03;4998366;28;8818;-83
2021/07/11 02:47:31;;;;;;;;;7.00;6.50;;;;;-144.77;100.00;61770.03;4998089;28;8777;-82
2021/07/11 02:50:01;;;;;;;;;7.50;7.50;;;;;-144.77;100.00;61770.03;4997988;28;8893;-82
2021/07/11 02:52:28;;;;;;;;;7.00;6.00;;;;;-144.77;100.00;61770.03;4998152;28;9097;-83
2021/07/11 02:55:16;;;;;;;;;4.00;3.00;;;;;-144.77;100.00;61770.03;4998164;28;8794;-83
2021/07/11 02:57:46;;;;;;;;;4.00;4.00;;;;;-144.77;100.00;61770.03;4985109;28;8825;-83
2021/07/11 03:00:12;;;;;;;;;6.75;5.00;;;;;-144.77;100.00;61770.03;4997941;28;8805;-83
2021/07/11 03:02:40;;;;;;;;;5.50;5.50;;;;;-144.77;100.00;61770.03;4998180;28;8840;-83
2021/07/11 03:05:10;;;;;;;;;6.00;4.75;;;;;-144.77;100.00;61770.03;4990150;28;8806;-83
2021/07/11 03:07:36;;;;;;;;;5.00;5.00;;;;;-144.77;100.00;61770.03;4997798;28;8810;-83
2021/07/11 03:10:02;;;;;;;;;5.00;5.00;;;;;-144.77;100.00;61770.03;4997774;28;8833;-83
2021/07/11 03:12:29;;;;;;;;;5.00;5.00;;;;;-144.77;100.00;61770.03;4997594;28;8798;-83
2021/07/11 03:14:56;;;;;;;;;5.00;5.00;;;;;-144.77;100.00;61770.03;4994118;28;8838;-83
2021/07/11 03:17:25;;;;;;;;;6.75;5.75;;;;;-144.77;100.00;61770.03;4985174;28;8740;-83
2021/07/11 03:19:53;;;;;;;;;7.50;6.00;;;;;-144.77;100.00;61770.03;4997316;28;8803;-83
2021/07/11 03:22:24;;;;;;;;;8.00;7.00;;;;;-144.77;100.00;61770.03;4997673;28;8798;-84
2021/07/11 03:24:53;;;;;;;;;8.00;8.00;;;;;-144.77;100.00;61770.03;4984235;28;8825;-84
2021/07/11 03:27:19;;;;;;;;;8.00;8.00;;;;;-144.77;100.00;61770.03;4995903;28;8952;-83
2021/07/11 03:30:01;;;;;;;;;12.25;11.00;;;;;-144.77;100.00;61770.03;4997315;28;8783;-83
2021/07/11 03:32:29;;;;;;;;;18.75;18.50;;;;;-144.77;100.00;61770.03;4997534;28;8811;-83
2021/07/11 03:34:58;;;;;;;;;12.25;11.25;;;;;-144.77;100.00;61770.03;4997162;28;8863;-83
2021/07/11 03:37:25;;;;;;;;;7.50;7.50;;;;;-144.77;100.00;61770.03;4997543;28;9732;-82
2021/07/11 03:39:52;;;;;;;;;6.50;6.50;;;;;-144.77;100.00;61770.03;4997333;28;8807;-82
2021/07/11 03:42:20;;;;;;;;;7.25;7.00;;;;;-144.77;100.00;61770.03;4997425;28;8818;-82
2021/07/11 03:44:51;;;;;;;;;5.00;5.00;;;;;-144.77;100.00;61770.03;4997283;28;8803;-82
2021/07/11 03:47:20;;;;;;;;;7.75;5.50;;;;;-144.77;100.00;61770.03;4997261;28;8803;-84
2021/07/11 03:49:51;;;;;;;;;3.00;3.00;;;;;-144.77;100.00;61770.03;4996174;28;8818;-83
2021/07/11 03:52:22;;;;;;;;;6.00;6.00;;;;;-144.77;100.00;61770.03;4997391;28;8791;-83
2021/07/11 03:54:49;;;;;;;;;7.00;4.75;;;;;-144.77;100.00;61770.03;4997167;28;8806;-82
2021/07/11 03:57:15;;;;;;;;;5.75;5.00;;;;;-144.77;100.00;61770.03;4996824;28;8821;-83
2021/07/11 03:59:41;;;;;;;;;6.00;5.00;;;;;-144.77;100.00;61770.03;4997197;28;8794;-82
2021/07/11 04:02:08;;;;;;;;;7.75;6.50;;;;;-144.77;100.00;61770.03;4997022;28;8810;-83
2021/07/11 04:04:38;;;;;;;;;6.75;6.00;;;;;-144.77;100.00;61770.03;4989508;28;9715;-83
2021/07/11 04:07:05;;;;;;;;;5.00;5.00;;;;;-144.77;100.00;61770.03;4996945;28;8795;-83
2021/07/11 04:09:32;;;;;;;;;6.00;5.00;;;;;-144.77;100.00;61770.03;4997030;28;8791;-83
2021/07/11 04:11:58;;;;;;;;;5.00;5.00;;;;;-144.77;100.00;61770.03;4996990;28;8786;-82
2021/07/11 04:14:24;;;;;;;;;5.00;5.00;;;;;-144.77;100.00;61770.03;4996486;28;8830;-83
2021/07/11 04:17:07;;;;;;;;;4.75;4.75;;;;;-144.77;100.00;61770.03;4996762;28;8869;-83
2021/07/11 04:19:36;;;;;;;;;4.25;4.25;;;;;-144.77;100.00;61770.03;4996930;28;8812;-83
2021/07/11 04:22:05;;;;;;;;;5.50;5.00;;;;;-144.77;100.00;61770.03;4996582;28;8769;-83
2021/07/11 04:24:33;;;;;;;;;5.00;5.00;;;;;-144.77;100.00;61770.03;4985017;28;8846;-83
2021/07/11 04:26:59;;;;;;;;;5.00;5.00;;;;;-144.77;100.00;61770.03;4995910;28;9748;-83
2021/07/11 04:29:25;;;;;;;;;5.25;4.75;;;;;-144.77;100.00;61770.03;4996657;28;8813;-83
2021/07/11 04:31:51;;;;;;;;;6.00;6.00;;;;;-144.77;100.00;61770.03;4996519;28;8790;-83
2021/07/11 04:34:36;;;;;;;;;9.00;7.00;;;;;-144.77;100.00;61770.03;4996120;28;8960;-82
2021/07/11 04:37:05;;;;;;;;;9.75;8.75;;;;;-144.77;100.00;61770.03;4986091;28;8852;-83
2021/07/11 04:39:31;;;;;;;;;8.75;7.00;;;;;-144.77;100.00;61770.03;4996413;28;8903;-82
2021/07/11 04:41:58;;;;;;;;;7.50;6.75;;;;;-144.77;100.00;61770.03;4996580;28;8786;-83
2021/07/11 04:44:24;;;;;;;;;7.50;7.50;;;;;-144.77;100.00;61770.03;4996219;28;8762;-83
2021/07/11 04:46:50;;;;;;;;;7.75;5.50;;;;;-144.77;100.00;61770.03;4996480;28;8844;-83
2021/07/11 04:49:16;;;;;;;;;6.00;6.00;;;;;-144.77;100.00;61770.03;4996107;28;8906;-83
2021/07/11 04:51:42;;;;;;;;;5.25;5.00;;;;;-144.77;100.00;61770.03;4996417;28;8817;-82
2021/07/11 04:54:08;;;;;;;;;5.00;5.00;;;;;-144.77;100.00;61770.03;4994971;28;8856;-82
2021/07/11 04:56:35;;;;;;;;;5.75;5.75;;;;;-144.77;100.00;61770.03;4995979;28;8794;-82
2021/07/11 04:59:00;;;;;;;;;8.00;5.25;;;;;-144.77;100.00;61770.03;4995988;28;8817;-82
2021/07/11 05:01:26;;;;;;;;;7.50;5.25;;;;;-144.77;100.00;61770.03;4975349;28;8918;-82
2021/07/11 05:03:53;;;;;;;;;6.75;6.50;;;;;-144.77;100.00;61770.03;4991718;28;8858;-83
2021/07/11 05:06:19;;;;;;;;;8.00;6.25;;;;;-144.77;100.00;61770.03;4990833;28;8786;-83
2021/07/11 05:08:44;;;;;;;;;4.75;4.75;;;;;-144.77;100.00;61770.03;4995863;28;8916;-82
2021/07/11 05:11:10;;;;;;;;;9.25;7.00;;;;;-144.77;100.00;61770.03;4996318;28;8825;-83
2021/07/11 05:13:36;;;;;;;;;6.00;6.00;;;;;-144.77;100.00;61770.03;4995452;28;8846;-82
2021/07/11 05:16:01;;;;;;;;;8.00;7.50;;;;;-144.77;100.00;61770.03;4978004;28;8830;-82
2021/07/11 05:18:27;;;;;;;;;7.25;5.25;;;;;-144.77;100.00;61770.03;4995706;28;9624;-82
2021/07/11 05:20:53;;;;;;;;;7.00;7.00;;;;;-144.77;100.00;61770.03;4995821;28;8823;-82
2021/07/11 05:23:18;;;;;;;;;8.00;7.00;;;;;-144.77;100.00;61770.03;4993952;28;8797;-83
2021/07/11 05:25:44;;;;;;;;;8.25;7.00;;;;;-144.77;100.00;61770.03;4978242;28;8962;-83
2021/07/11 05:28:10;;;;;;;;;7.00;6.00;;;;;-144.77;100.00;61770.03;4986890;28;8919;-83
2021/07/11 05:30:35;;;;;;;;;6.75;6.50;;;;;-144.77;100.00;61770.03;4995958;28;8829;-83
2021/07/11 05:33:01;;;;;;;;;8.75;6.75;;;;;-144.77;100.00;61770.03;4995244;28;8960;-83
2021/07/11 05:35:26;;;;;;;;;7.50;7.50;;;;;-144.77;100.00;61770.03;4995731;28;8829;-83
2021/07/11 05:37:52;;;;;;;;;6.50;6.50;;;;;-144.77;100.00;61770.03;4995518;28;8849;-82
2021/07/11 05:40:17;;;;;;;;;5.50;5.00;;;;;-144.77;100.00;61770.03;4995614;28;8833;-83
2021/07/11 05:42:43;;;;;;;;;8.25;6.00;;;;;-144.77;100.00;61770.03;4995407;28;9825;-83
2021/07/11 05:45:11;;;;;;;;;5.00;5.00;;;;;-144.77;100.00;61770.03;4995731;28;8833;-82
2021/07/11 05:47:37;;;;;;;;;7.00;6.50;;;;;-144.77;100.00;61770.03;4977112;28;8825;-82
2021/07/11 05:50:05;;;;;;;;;5.75;5.00;;;;;-144.77;100.00;61770.03;4977804;28;8814;-82
2021/07/11 05:52:31;;;;;;;;;4.50;4.50;;;;;-144.77;100.00;61770.03;4995198;28;8794;-82
2021/07/11 05:54:56;;;;;;;;;8.00;6.25;;;;;-144.77;100.00;61770.03;4995381;28;8816;-83
2021/07/11 05:57:22;;;;;;;;;5.00;4.25;;;;;-144.77;100.00;61770.03;4994960;28;8833;-83
2021/07/11 05:59:48;;;;;;;;;5.25;4.00;;;;;-144.77;100.00;61770.03;4995460;28;8818;-83
2021/07/11 06:02:13;;;;;;;;;6.25;6.25;;;;;-144.77;100.00;61770.03;4995102;28;8809;-83
2021/07/11 06:04:39;;;;;;;;;1.50;1.50;;;;;-144.77;100.00;61770.03;4987761;28;8893;-83
2021/07/11 06:07:05;;;;;;;;;5.50;5.25;;;;;-144.77;100.00;61770.03;4995164;28;8945;-83
2021/07/11 06:09:30;;;;;;;;;7.50;5.50;;;;;-144.77;100.00;61770.03;4977628;28;9424;-83
2021/07/11 06:11:56;;;;;;;;;6.00;4.50;;;;;-144.77;100.00;61770.03;4994955;28;8810;-82
2021/07/11 06:14:21;;;;;;;;;4.25;4.25;;;;;-144.77;100.00;61770.03;4994737;28;8846;-83
2021/07/11 06:16:47;;;;;;;;;6.25;6.25;;;;;-144.77;100.00;61770.03;4994977;28;8802;-83
2021/07/11 06:19:14;;;;;;;;;6.00;6.00;;;;;-144.77;100.00;61770.03;4995107;28;8828;-83
2021/07/11 06:21:40;;;;;;;;;5.50;5.50;;;;;-144.77;100.00;61770.03;4994919;28;8851;-82
2021/07/11 06:24:05;;;;;;;;;6.00;6.00;;;;;-144.77;100.00;61770.03;4986881;28;8816;-82
2021/07/11 06:26:31;;;;;;;;;10.25;8.50;;;;;-144.77;100.00;61770.03;4990383;28;8872;-83
2021/07/11 06:28:57;;;;;;;;;10.25;6.50;;;;;-144.77;100.00;61770.03;4985442;28;8911;-82
2021/07/11 06:31:23;;;;;;;;;5.25;5.25;;;;;-144.77;100.00;61770.03;4995001;28;8790;-83
2021/07/11 06:33:48;;;;;;;;;5.25;4.75;;;;;-144.77;100.00;61770.03;4994934;28;8829;-83
2021/07/11 06:36:14;;;;;;;;;5.50;5.50;;;;;-144.77;100.00;61770.03;4995050;28;8794;-83
2021/07/11 06:38:39;;;;;;;;;5.75;4.25;;;;;-144.77;100.00;61770.03;4974184;28;9030;-82
2021/07/11 06:41:05;;;;;;;;;6.50;5.00;;;;;-144.77;100.00;61770.03;4991025;28;8805;-82
2021/07/11 06:43:30;;;;;;;;;5.50;5.50;;;;;-144.77;100.00;61770.03;4994829;28;8891;-83
2021/07/11 06:45:56;;;;;;;;;8.25;7.50;;;;;-144.77;100.00;61770.03;4994770;28;8802;-83
2021/07/11 06:48:21;;;;;;;;;9.75;7.50;;;;;-144.77;100.00;61770.03;4994843;28;8836;-83
2021/07/11 06:50:47;;;;;;;;;6.75;5.75;;;;;-144.77;100.00;61770.03;4976201;28;8811;-83
2021/07/11 06:53:13;;;;;;;;;7.00;6.25;;;;;-144.77;100.00;61770.03;4977262;28;8837;-83
2021/07/11 06:55:39;;;;;;;;;6.25;6.00;;;;;-144.77;100.00;61770.03;4994507;28;8808;-78
2021/07/11 06:58:05;;;;;;;;;5.75;5.75;;;;;-144.77;100.00;61770.03;4994972;28;8892;-81
2021/07/11 07:00:30;;;;;;;;;5.25;5.25;;;;;-144.77;100.00;61770.03;4980222;28;8810;-81
2021/07/11 07:02:56;;;;;;;;;7.00;6.00;;;;;-144.77;100.00;61770.03;4997809;28;8806;-81
2021/07/11 07:05:21;;;;;;;;;5.00;5.00;;;;;-144.77;100.00;61770.03;4990420;28;8790;-82
2021/07/11 07:07:48;;;;;;;;;5.25;5.25;;;;;-144.77;100.00;61770.03;4998103;28;8876;-81
2021/07/11 07:10:14;;;;;;;;;6.00;5.50;;;;;-144.77;100.00;61770.03;4997894;28;8798;-81
2021/07/11 07:12:44;;;;;;;;;4.00;4.00;;;;;-144.77;100.00;61770.03;4997867;28;8832;-80
2021/07/11 07:15:10;;;;;;;;;4.75;4.75;;;;;-144.77;100.00;61770.03;4997328;28;8850;-81
2021/07/11 07:17:37;;;;;;;;;5.25;4.75;;;;;-144.77;100.00;61770.03;4992911;28;8821;-80
2021/07/11 07:20:05;;;;;;;;;6.00;5.00;;;;;-144.77;100.00;61770.03;4993481;28;8826;-80
2021/07/11 07:22:31;;;;;;;;;6.00;4.00;;;;;-144.77;100.00;61770.03;4996196;28;8834;-80
2021/07/11 07:24:57;;;;;;;;;6.25;5.00;;;;;-144.77;100.00;61770.03;4984918;28;8843;-82
2021/07/11 07:27:22;;;;;;;;;4.00;4.00;;;;;-144.77;100.00;61770.03;4996081;28;8996;-82
2021/07/11 07:29:48;;;;;;;;;7.00;6.00;;;;;-144.77;100.00;61770.03;5012402;28;8819;-81
2021/07/11 07:32:15;;;;;;;;;3.75;3.50;;;;;-144.77;100.00;61770.03;4997695;28;8803;-80
2021/07/11 07:34:40;;;;;;;;;5.25;5.25;;;;;-144.77;100.00;61770.03;4997085;28;9851;-81
2021/07/11 07:37:06;;;;;;;;;4.50;4.50;;;;;-144.77;100.00;61770.03;4996105;28;9701;-80
2021/07/11 07:39:31;;;;;;;;;5.00;4.00;;;;;-144.77;100.00;61770.03;4997595;28;8779;-80
2021/07/11 07:41:57;;;;;;;;;5.50;4.50;;;;;-144.77;100.00;61770.03;4997790;28;8838;-83
2021/07/11 07:44:23;;;;;;;;;4.25;4.25;;;;;-144.77;100.00;61770.03;4997227;28;9040;-80
2021/07/11 07:46:48;;;;;;;;;4.75;4.75;;;;;-144.77;100.00;61770.03;4997460;28;8791;-81
2021/07/11 07:49:15;;;;;;;;;5.00;5.00;;;;;-144.77;100.00;61770.03;4996983;28;8845;-80
2021/07/11 07:51:40;;;;;;;;;4.75;4.75;;;;;-144.77;100.00;61770.03;4995990;28;8850;-80
2021/07/11 07:54:06;;;;;;;;;4.50;4.50;;;;;-144.77;100.00;61770.03;4997092;28;8830;-80
2021/07/11 07:56:32;;;;;;;;;4.75;4.75;;;;;-144.77;100.00;61770.03;4997108;28;8901;-80
2021/07/11 07:58:57;;;;;;;;;6.50;6.00;;;;;-144.77;100.00;61770.03;4997010;28;8803;-81
2021/07/11 08:01:23;;;;;;;;;3.75;3.50;;;;;-144.77;100.00;61770.03;4997161;28;8826;-80
2021/07/11 08:03:49;;;;;;;;;5.00;4.75;;;;;-144.77;100.00;61770.03;4995367;28;8838;-80
2021/07/11 08:06:14;;;;;;;;;5.00;5.00;;;;;-144.77;100.00;61770.03;4991270;28;8810;-81
2021/07/11 08:08:40;;;;;;;;;7.75;6.00;;;;;-144.77;100.00;61770.03;4995528;28;8827;-80
2021/07/11 08:11:07;;;;;;;;;6.00;6.00;;;;;-144.77;100.00;61770.03;4992101;28;8927;-80
2021/07/11 08:13:34;;;;;;;;;6.00;6.00;;;;;-144.77;100.00;61770.03;4991995;28;8809;-81
2021/07/11 08:16:00;;;;;;;;;6.00;6.00;;;;;-144.77;100.00;61770.03;4996633;28;8802;-85
2021/07/11 08:18:25;;;;;;;;;3.75;3.75;;;;;-144.77;100.00;61770.03;4996569;28;8817;-82
2021/07/11 08:20:51;;;;;;;;;5.50;5.25;;;;;-144.77;100.00;61770.03;4996853;28;8969;-81
2021/07/11 08:23:17;;;;;;;;;5.75;5.75;;;;;-144.77;100.00;61770.03;4994758;28;8932;-80
2021/07/11 08:25:42;;;;;;;;;8.50;8.50;;;;;-144.77;100.00;61770.03;4986263;28;8805;-80
2021/07/11 08:28:07;;;;;;;;;11.75;10.00;;;;;-144.77;100.00;61770.03;4987305;28;9651;-80
2021/07/11 08:30:33;;;;;;;;;8.00;7.75;;;;;-144.77;100.00;61770.03;4996634;28;8821;-80
2021/07/11 08:32:59;;;;;;;;;10.00;8.00;;;;;-144.77;100.00;61770.03;4977578;28;8870;-84
2021/07/11 08:35:25;;;;;;;;;13.50;12.00;;;;;-144.77;100.00;61770.03;4979113;28;8920;-82
2021/07/11 08:37:50;;;;;;;;;14.25;12.25;;;;;-144.77;100.00;61770.03;4996600;28;8806;-82
2021/07/11 08:40:16;;;;;;;;;9.00;9.00;;;;;-144.77;100.00;61770.03;4996522;28;8877;-82
2021/07/11 08:42:42;;;;;;;;;12.25;12.00;;;;;-144.77;100.00;61770.03;4996226;28;8837;-81
2021/07/11 08:45:10;;;;;;;;;12.75;12.75;;;;;-144.77;100.00;61770.03;4978649;28;8806;-79
2021/07/11 08:47:39;;;;;;;;;10.00;9.00;;;;;-144.77;100.00;61770.03;4996021;28;8751;-80
2021/07/11 08:50:07;;;;;;;;;10.25;8.25;;;;;-144.77;100.00;61770.03;4996383;28;8938;-83
2021/07/11 08:52:35;;;;;;;;;10.25;9.00;;;;;-144.77;100.00;61770.03;4995928;28;8818;-77
2021/07/11 08:55:02;;;;;;;;;8.25;8.00;;;;;-144.77;100.00;61770.03;4995927;28;8930;-76
2021/07/11 08:57:27;;;;;;;;;16.25;13.75;;;;;-144.77;100.00;61770.03;4995988;28;8856;-75
2021/07/11 08:59:53;;;;;;;;;9.75;9.00;;;;;-144.77;100.00;61770.03;4996109;28;8972;-75
2021/07/11 09:02:18;;;;;;;;;8.00;8.00;;;;;-144.77;100.00;61770.03;4973656;28;8950;-75
2021/07/11 09:04:46;;;;;;;;;8.75;8.00;;;;;-144.77;100.00;61770.03;4980099;28;8807;-75
2021/07/11 09:07:22;;;;;;;;;7.25;7.00;;;;;-144.77;100.00;61770.03;4995965;28;8840;-75
2021/07/11 09:09:56;;;;;;;;;7.25;7.25;;;;;-144.77;100.00;61770.03;4995921;28;8898;-75
2021/07/11 09:12:23;;;;;;;;;8.50;8.00;;;;;-144.77;100.00;61770.03;4995653;28;8814;-75
2021/07/11 09:14:48;;;;;;;;;7.75;7.75;;;;;-144.77;100.00;61770.03;4995344;28;8983;-75
2021/07/11 09:17:14;;;;;;;;;6.00;6.00;;;;;-144.77;100.00;61770.03;4995643;28;8928;-75
2021/07/11 09:19:41;;;;;;;;;6.50;5.50;;;;;-144.77;100.00;61770.03;4995712;28;8810;-75
2021/07/11 09:22:13;;;;;;;;;7.25;6.75;;;;;-144.77;100.00;61770.03;4977446;28;9457;-75
2021/07/11 09:24:50;;;;;;;;;5.75;5.75;;;;;-144.77;100.00;61770.03;4982924;28;8772;-75
2021/07/11 09:27:31;;;;;;;;;6.50;6.25;;;;;-144.77;100.00;61770.03;4980008;28;8804;-75
2021/07/11 09:30:03;;;;;;;;;4.75;4.75;;;;;-144.77;100.00;61770.03;4977835;28;8841;-74
2021/07/11 09:32:34;;;;;;;;;7.00;7.00;;;;;-144.77;100.00;61770.03;4994386;28;8836;-74
2021/07/11 09:35:29;;;;;;;;;7.50;7.50;;;;;-144.77;100.00;61770.03;4995458;28;8814;-76
2021/07/11 09:37:58;;;;;;;;;5.50;4.75;;;;;-144.77;100.00;61770.03;4974189;28;8790;-79
2021/07/11 09:40:25;;;;;;;;;4.75;4.75;;;;;-144.77;100.00;61770.03;4977066;28;8811;-77
2021/07/11 09:42:57;;;;;;;;;5.50;5.50;;;;;-144.77;100.00;61770.03;4992384;28;8785;-77
2021/07/11 09:45:30;;;;;;;;;5.50;5.50;;;;;-144.77;100.00;61770.03;4995632;28;8786;-76
2021/07/11 09:48:04;;;;;;;;;8.25;7.00;;;;;-144.77;100.00;61770.03;4995167;28;8900;-77
2021/07/11 09:50:29;;;;;;;;;5.75;4.75;;;;;-144.77;100.00;61770.03;4995337;28;8821;-77
2021/07/11 09:52:56;;;;;;;;;4.00;2.75;;;;;-144.77;100.00;61770.03;4994959;28;8935;-77
2021/07/11 09:55:30;;;;;;;;;6.00;4.00;;;;;-144.77;100.00;61770.03;4995354;28;8804;-77
2021/07/11 09:58:03;;;;;;;;;4.75;4.75;;;;;-144.77;100.00;61770.03;4995241;28;8735;-77
2021/07/11 10:00:32;;;;;;;;;4.00;4.00;;;;;-144.77;100.00;61770.03;4993345;28;9720;-77
2021/07/11 10:03:05;;;;;;;;;6.25;4.00;;;;;-144.77;100.00;61770.03;4977758;28;8826;-78
2021/07/11 10:05:31;;;;;;;;;4.00;4.00;;;;;-144.77;100.00;61770.03;4977418;28;8872;-78
2021/07/11 10:07:58;;;;;;;;;5.50;5.00;;;;;-144.77;100.00;61770.03;4995495;28;9629;-78
2021/07/11 10:10:26;;;;;;;;;4.00;4.00;;;;;-144.77;100.00;61770.03;4995130;28;8746;-78
2021/07/11 10:12:53;;;;;;;;;4.00;3.25;;;;;-144.77;100.00;61770.03;4995191;28;8798;-78
2021/07/11 10:15:22;;;;;;;;;4.50;4.00;;;;;-144.77;100.00;61770.03;4994724;28;8794;-78
2021/07/11 10:18:01;;;;;;;;;6.00;5.75;;;;;-144.77;100.00;61770.03;4995019;28;8798;-78
2021/07/11 10:20:35;;;;;;;;;5.00;5.00;;;;;-144.77;100.00;61770.03;4995056;28;8909;-78
2021/07/11 10:23:02;;;;;;;;;5.75;5.25;;;;;-144.77;100.00;61770.03;4995223;28;8774;-79
2021/07/11 10:25:30;;;;;;;;;7.00;7.00;;;;;-144.77;100.00;61770.03;4977594;28;8844;-80
2021/07/11 10:28:14;;;;;;;;;4.25;4.25;;;;;-144.77;100.00;61770.03;4974880;28;8846;-79
2021/07/11 10:30:43;;;;;;;;;3.50;3.50;;;;;-144.77;100.00;61770.03;4995510;28;8743;-78
2021/07/11 10:33:14;;;;;;;;;3.75;3.75;;;;;-144.77;100.00;61770.03;4996371;28;8806;-78
2021/07/11 10:36:05;;;;;;;;;3.00;3.00;;;;;-144.77;100.00;61770.03;4998438;28;8816;-77
2021/07/11 10:38:36;;;;;;;;;2.75;2.75;;;;;-144.77;100.00;61770.03;4996970;28;9055;-77
2021/07/11 10:41:16;;;;;;;;;5.00;3.50;;;;;-144.77;100.00;61770.03;4979376;28;8846;-78
2021/07/11 10:43:58;;;;;;;;;2.25;2.25;;;;;-144.77;100.00;61770.03;4998330;28;8809;-77
2021/07/11 10:46:34;;;;;;;;;4.00;4.00;;;;;-144.77;100.00;61770.03;4974362;28;8843;-78
2021/07/11 10:49:12;;;;;;;;;4.00;4.00;;;;;-144.77;100.00;61770.03;4989177;28;8875;-78
2021/07/11 10:51:49;;;;;;;;;4.00;4.00;;;;;-144.77;100.00;61770.03;4998254;28;8829;-77
2021/07/11 10:54:26;;;;;;;;;5.00;3.25;;;;;-144.77;100.00;61770.03;4997983;28;8896;-79
2021/07/11 10:56:56;;;;;;;;;4.75;3.75;;;;;-144.77;100.00;61770.03;4986632;28;9798;-78
2021/07/11 10:59:34;;;;;;;;;6.00;4.00;;;;;-144.77;100.00;61770.03;4973858;28;8765;-78
2021/07/11 11:02:02;;;;;;;;;4.75;4.50;;;;;-144.77;100.00;61770.03;4992845;28;8786;-77
2021/07/11 11:04:28;;;;;;;;;4.00;4.00;;;;;-144.77;100.00;61770.03;4990943;28;8829;-77
2021/07/11 11:06:54;;;;;;;;;4.50;4.50;;;;;-144.77;100.00;61770.03;4991576;28;8782;-77
2021/07/11 11:09:36;;;;;;;;;3.00;3.00;;;;;-144.77;100.00;61770.03;4998113;28;8782;-77
2021/07/11 11:12:02;;;;;;;;;4.00;3.75;;;;;-144.77;100.00;61770.03;4980015;28;8841;-77
2021/07/11 11:14:29;;;;;;;;;3.75;3.75;;;;;-144.77;100.00;61770.03;4997298;28;8819;-77
2021/07/11 11:16:54;;;;;;;;;3.00;3.00;;;;;-144.77;100.00;61770.03;4997703;28;9827;-78
2021/07/11 11:19:24;;;;;;;;;3.50;3.50;;;;;-144.77;100.00;61770.03;4997598;28;8813;-78
2021/07/11 11:21:54;;;;;;;;;6.50;4.00;;;;;-144.77;100.00;61770.03;4997449;28;9014;-79